• Join FlightAware (Why Join?)
  • Login
  • US Flag 
12:21PM EDT


 

Airport Tracker/Info


-or-


 

Live Flight TrackerFlight Track Log ✈ N333HC ✈ 09-Jun-2013 ✈ KLZU - KMDD

Flight Track Log - Related Links

Times and Time Zones

All times are in EDT time to prevent confusion due to time zone crossing. See the N333HC flight status page for this flight to view local times or setup timezone preferences in your user account.

Time Position Orientation Groundspeed Altitude Reporting Facility
EDT Latitude Longitude Course Direction KTS MPH feet Rate Location/Type
03:03PM 34.0333 -84.1000 309° West 189 217 4,700  Level Atlanta TRACON
03:04PM 34.0333 -84.1500 270° West 182 209 6,400 1,560 Climbing Atlanta TRACON
03:05PM 34.0333 -84.2167 270° West 178 205 7,900 660 Climbing Atlanta TRACON
03:06PM 34.0333 -84.2833 270° West 218 251 7,800 -60 Descending Atlanta TRACON
03:07PM 33.8721 -84.4451 253° West  Level FlightAware Approximate
03:07PM 34.0333 -84.3667 270° West 245 282 7,800  Level Atlanta TRACON
03:08PM 34.0333 -84.4500 270° West 240 276 7,800  Level Atlanta TRACON
03:09PM 34.0500 -84.5333 284° West 229 264 7,900  Climbing Atlanta TRACON
03:10PM 34.0500 -84.6000 270° West 222 255 7,900  Level Atlanta TRACON
03:11PM 34.0667 -84.6833 284° West 222 255 7,900  Level Atlanta TRACON
03:12PM 34.0667 -84.7500 270° West 214 246 7,900  Level Atlanta TRACON
03:13PM 34.0500 -84.8167 253° West 210 242 7,900  Level Atlanta TRACON
03:14PM 34.0333 -84.8667 248° West 183 211 7,900 660 Level Atlanta TRACON
03:15PM 34.0000 -84.9167 231° Southwest 167 192 9,300 900 Climbing Atlanta TRACON
03:16PM 33.9500 -84.9500 209° Southwest 194 223 9,800 240 Climbing Atlanta TRACON
03:17PM 33.9222 -84.9875 228° Southwest 218 251 9,800 -60 Level Atlanta Center
03:18PM 33.8694 -85.0369 218° Southwest 243 280 9,700 300 Descending Atlanta Center
03:19PM 33.8189 -85.0889 220° Southwest 243 280 10,400 540 Climbing Atlanta Center
03:20PM 33.7892 -85.1561 242° Southwest 227 261 10,800 180 Climbing Atlanta Center
03:21PM 33.7614 -85.2331 247° West 237 273 10,800 240 Level Atlanta Center
03:22PM 33.7333 -85.3078 246° West 249 287 11,300 1,200 Climbing Atlanta Center
03:23PM 33.7222 -85.3800 260° West 232 267 13,300 1,800 Climbing Atlanta Center
03:24PM 33.7133 -85.4372 259° West 196 226 14,900 1,440 Climbing Atlanta Center
03:25PM 33.7375 -85.5003 295° West 184 212 16,200 1,380 Climbing Atlanta Center
03:26PM 33.7514 -85.5603 286° West 196 226 17,700 1,200 Climbing Atlanta Center
03:27PM 33.7361 -85.6225 254° West 183 211 18,700 960 Climbing Atlanta Center
03:28PM 33.7228 -85.6822 255° West 188 216 19,700 600 Climbing Atlanta Center
03:29PM 33.7092 -85.7519 257° West 199 229 20,000 60 Climbing Atlanta Center
03:30PM 33.6958 -85.8192 257° West 222 255 19,900 420 Descending Atlanta Center
03:31PM 33.6925 -85.8989 267° West 236 272 20,900 900 Climbing Atlanta Center
03:32PM 33.6872 -85.9661 265° West 229 264 21,700 660 Climbing Atlanta Center
03:33PM 33.6822 -86.0333 265° West 218 251 22,300 780 Climbing Atlanta Center
03:34PM 33.6706 -86.1031 259° West 213 245 23,300 900 Climbing Atlanta Center
03:35PM 33.6611 -86.1678 260° West 213 245 24,100 720 Climbing Atlanta Center
03:36PM 33.6514 -86.2375 261° West 218 251 24,800 660 Climbing Atlanta Center
03:37PM 33.6397 -86.3044 258° West 218 251 25,500 540 Climbing Atlanta Center
03:38PM 33.6303 -86.3742 261° West 218 251 25,900 240 Climbing Atlanta Center
03:39PM 33.6142 -86.4533 256° West 224 258 26,000  Climbing Atlanta Center
03:40PM 33.6000 -86.5328 258° West 240 276 26,000 -60 Level Atlanta Center
03:41PM 33.5942 -86.6175 265° West 247 284 25,900  Descending Atlanta Center
03:42PM 33.5900 -86.7047 267° West 254 292 26,000 600 Climbing Atlanta Center
03:43PM 33.5864 -86.7842 267° West 254 292 27,100 900 Climbing Atlanta Center
03:44PM 33.5847 -86.8567 268° West 238 274 27,900 420 Climbing Atlanta Center
03:45PM 33.5808 -86.9286 266° West 225 259 28,000  Climbing Atlanta Center
03:46PM 33.5894 -87.0064 278° West 225 259 28,000  Level Atlanta Center
03:47PM 33.5978 -87.0889 277° West 242 278 28,000  Level Atlanta Center
03:48PM 33.6042 -87.1714 275° West 247 284 28,000  Level Atlanta Center
03:49PM 33.6125 -87.2567 277° West 253 291 28,000  Level Atlanta Center
03:51PM 33.6336 -87.4481 278° West 269 310 28,000  Level Memphis Center
03:52PM 33.6417 -87.5328 277° West 269 310 28,000 -60 Level Memphis Center
03:53PM 33.6417 -87.6200 270° West 269 310 27,900  Descending Memphis Center
03:54PM 33.6350 -87.7075 265° West 269 310 28,000  Climbing Memphis Center
03:55PM 33.6328 -87.7925 268° West 269 310 28,000  Level Memphis Center
03:56PM 33.6261 -87.8800 265° West 269 310 28,000  Level Memphis Center
03:57PM 33.6236 -87.9647 268° West 269 310 28,000  Level Memphis Center
03:58PM 33.6189 -88.0497 266° West 269 310 28,000  Level Memphis Center
03:59PM 33.6144 -88.1422 267° West 264 304 28,000  Level Memphis Center
04:00PM 33.6075 -88.2272 264° West 259 298 28,000 -60 Level Memphis Center
04:01PM 33.5922 -88.3072 257° West 254 292 27,900  Descending Memphis Center
04:02PM 33.5831 -88.3922 263° West 254 292 28,000  Climbing Memphis Center
04:03PM 33.5803 -88.4797 268° West 254 292 28,000  Level Memphis Center
04:04PM 33.5692 -88.5647 261° West 259 298 28,000  Level Memphis Center
04:05PM 33.5431 -88.6450 249° West 259 298 28,000  Level Memphis Center
04:06PM 33.5211 -88.7225 251° West 259 298 28,000  Level Memphis Center
04:07PM 33.4950 -88.8053 249° West 259 298 28,000  Level Memphis Center
04:08PM 33.4689 -88.8806 247° West 259 298 28,000  Level Memphis Center
04:09PM 33.4428 -88.9606 249° West 259 298 28,000  Level Memphis Center
04:10PM 33.4164 -89.0431 249° West 259 298 28,000  Level Memphis Center
04:11PM 33.3922 -89.1231 250° West 259 298 28,000  Level Memphis Center
04:12PM 33.3700 -89.2031 252° West 259 298 28,000  Level Memphis Center
04:13PM 33.3478 -89.2731 249° West 259 298 28,000  Level Memphis Center
04:14PM 33.3211 -89.3528 248° West 259 298 28,000  Level Memphis Center
04:15PM 33.2969 -89.4353 251° West 259 298 28,000  Level Memphis Center
04:16PM 33.2722 -89.5125 249° West 254 292 28,000  Level Memphis Center
04:17PM 33.2500 -89.5947 252° West 254 292 28,000  Level Memphis Center
04:18PM 33.2317 -89.6742 255° West 254 292 28,000  Level Memphis Center
04:19PM 33.2217 -89.7589 262° West 254 292 28,000  Level Memphis Center
04:20PM 33.2072 -89.8433 258° West 259 298 28,000  Level Memphis Center
04:21PM 33.2036 -89.9303 267° West 259 298 28,000  Level Memphis Center
04:22PM 33.1997 -90.0197 267° West 264 304 28,000  Level Memphis Center
04:23PM 33.1936 -90.1164 266° West 269 310 28,000  Level Memphis Center
04:24PM 33.1917 -90.2083 269° West 274 315 28,000  Level Memphis Center
04:25PM 33.1856 -90.2953 265° West 274 315 28,000  Level Memphis Center
04:26PM 33.1792 -90.3844 265° West 274 315 28,000  Level Memphis Center
04:27PM 33.1750 -90.4714 267° West 274 315 28,000  Level Memphis Center
04:28PM 33.1708 -90.5633 267° West 274 315 28,000  Level Memphis Center
04:29PM 33.1664 -90.6500 267° West 274 315 28,000  Level Memphis Center
04:30PM 33.1619 -90.7369 267° West 274 315 28,000  Level Memphis Center
04:31PM 33.1575 -90.8286 267° West 274 315 28,000  Level Memphis Center
04:32PM 33.1508 -90.9206 265° West 274 315 28,000  Level Memphis Center
04:33PM 33.1461 -91.0097 266° West 274 315 28,000  Level Memphis Center
04:34PM 33.1394 -91.1017 265° West 274 315 28,000  Level Memphis Center
04:35PM 33.1369 -91.1883 268° West 274 315 28,000  Level Memphis Center
04:36PM 33.1319 -91.2825 266° West 274 315 28,000  Level Memphis Center
04:37PM 33.1272 -91.3619 266° West 279 321 28,000  Level Memphis Center
04:39PM 33.1200 -91.5456 267° West 290 334 28,000  Level Fort Worth Center
04:40PM 33.1114 -91.6303 263° West 284 327 28,000  Level Fort Worth Center
04:41PM 33.1075 -91.7222 267° West 279 321 28,000  Level Fort Worth Center
04:42PM 33.1006 -91.8044 264° West 270 311 28,000  Level Fort Worth Center
04:43PM 33.1003 -91.8914 270° West 265 305 28,000  Level Fort Worth Center
04:44PM 33.0958 -91.9808 267° West 265 305 28,000  Level Fort Worth Center
04:45PM 33.0911 -92.0656 266° West 270 311 28,000  Level Fort Worth Center
04:46PM 33.0825 -92.1578 264° West 275 316 28,000  Level Fort Worth Center
04:47PM 33.0778 -92.2447 266° West 275 316 28,000  Level Fort Worth Center
04:48PM 33.0731 -92.3317 266° West 275 316 28,000  Level Fort Worth Center
04:49PM 33.0661 -92.4214 265° West 275 316 28,000  Level Fort Worth Center
04:50PM 33.0572 -92.5086 263° West 275 316 28,000  Level Fort Worth Center
04:51PM 33.0522 -92.5981 266° West 275 316 28,000  Level Fort Worth Center
04:52PM 33.0472 -92.6850 266° West 275 316 28,000  Level Fort Worth Center
04:54PM 33.0347 -92.8592 265° West 275 316 28,000  Level Fort Worth Center
04:55PM 33.0294 -92.9436 266° West 275 316 28,000  Level Fort Worth Center
04:56PM 33.0219 -93.0258 264° West 270 311 28,000  Level Fort Worth Center
04:57PM 33.0167 -93.1128 266° West 270 311 28,000  Level Fort Worth Center
04:58PM 33.0092 -93.1972 264° West 264 304 28,000  Level Fort Worth Center
04:59PM 33.0036 -93.2819 266° West 264 304 28,000  Level Fort Worth Center
05:00PM 32.9958 -93.3664 264° West 264 304 28,000  Level Fort Worth Center
05:01PM 32.9903 -93.4508 266° West 258 297 28,000  Level Fort Worth Center
05:02PM 32.9825 -93.5378 264° West 258 297 28,000  Level Fort Worth Center
05:03PM 32.9767 -93.6247 265° West 258 297 28,000  Level Fort Worth Center
05:04PM 32.9706 -93.6992 264° West 258 297 28,000  Level Fort Worth Center
05:05PM 32.9606 -93.7864 262° West 258 297 28,000  Level Fort Worth Center
05:06PM 32.9567 -93.8706 267° West 258 297 28,000  Level Fort Worth Center
05:07PM 32.9508 -93.9575 265° West 258 297 28,000  Level Fort Worth Center
05:08PM 32.9428 -94.0419 264° West 258 297 28,000  Level Fort Worth Center
05:09PM 32.9344 -94.1289 264° West 258 297 28,000  Level Fort Worth Center
05:10PM 32.9306 -94.2133 267° West 258 297 28,000  Level Fort Worth Center
05:11PM 32.9222 -94.3000 263° West 258 297 28,000  Level Fort Worth Center
05:12PM 32.9139 -94.3844 263° West 258 297 28,000  Level Fort Worth Center
05:13PM 32.9075 -94.4714 265° West 258 297 28,000  Level Fort Worth Center
05:14PM 32.8992 -94.5583 264° West 258 297 28,000  Level Fort Worth Center
05:15PM 32.8928 -94.6425 265° West 258 297 28,000  Level Fort Worth Center
05:16PM 32.8861 -94.7317 265° West 258 297 28,000  Level Fort Worth Center
05:17PM 32.8775 -94.8186 263° West 263 303 28,000  Level Fort Worth Center
05:18PM 32.8731 -94.9053 267° West 263 303 28,000  Level Fort Worth Center
05:19PM 32.8622 -94.9922 262° West 263 303 28,000  Level Fort Worth Center
05:20PM 32.8556 -95.0814 265° West 268 308 28,000  Level Fort Worth Center
05:21PM 32.8489 -95.1656 265° West 268 308 28,000  Level Fort Worth Center
05:22PM 32.8378 -95.2550 262° West 273 314 28,000  Level Fort Worth Center
05:23PM 32.8353 -95.3514 268° West 273 314 28,000  Level Fort Worth Center
05:24PM 32.8222 -95.4408 260° West 273 314 28,000  Level Fort Worth Center
05:25PM 32.8172 -95.5272 266° West 273 314 28,000  Level Fort Worth Center
05:26PM 32.8081 -95.6189 263° West 273 314 28,000  Level Fort Worth Center
05:27PM 32.8008 -95.7056 264° West 273 314 28,000  Level Fort Worth Center
05:28PM 32.7939 -95.7947 265° West 273 314 28,000  Level Fort Worth Center
05:29PM 32.7844 -95.8839 263° West 273 314 28,000  Level Fort Worth Center
05:30PM 32.7750 -95.9756 263° West 273 314 28,000  Level Fort Worth Center
05:31PM 32.7656 -96.0669 263° West 273 314 28,000  Level Fort Worth Center
05:32PM 32.7583 -96.1561 265° West 279 321 28,000  Level Fort Worth Center
05:33PM 32.7486 -96.2475 263° West 279 321 28,000  Level Fort Worth Center
05:34PM 32.7392 -96.3392 263° West 279 321 28,000  Level Fort Worth Center
05:35PM 32.7314 -96.4256 264° West 274 315 28,000  Level Fort Worth Center
05:36PM 32.7217 -96.5144 263° West 274 315 28,000  Level Fort Worth Center
05:37PM 32.7117 -96.6061 263° West 274 315 28,000  Level Fort Worth Center
05:38PM 32.7039 -96.6975 264° West 274 315 28,000  Level Fort Worth Center
05:39PM 32.6942 -96.7864 263° West 274 315 28,000  Level Fort Worth Center
05:40PM 32.6839 -96.8778 262° West 274 315 28,000  Level Fort Worth Center
05:41PM 32.6761 -96.9717 264° West 274 315 28,000  Level Fort Worth Center
05:42PM 32.6658 -97.0606 262° West 279 321 28,000  Level Fort Worth Center
05:43PM 32.6536 -97.1519 261° West 279 321 28,000  Level Fort Worth Center
05:44PM 32.6453 -97.2333 263° West 279 321 28,000 -60 Level Fort Worth Center
05:45PM 32.6372 -97.3272 264° West 279 321 27,900  Descending Fort Worth Center
05:46PM 32.6289 -97.4208 264° West 279 321 28,000  Climbing Fort Worth Center
05:47PM 32.6183 -97.5097 262° West 279 321 28,000  Level Fort Worth Center
05:48PM 32.6097 -97.6033 264° West 284 327 28,000  Level Fort Worth Center
05:49PM 32.5992 -97.6969 262° West 284 327 28,000  Level Fort Worth Center
05:50PM 32.5906 -97.7883 264° West 289 333 28,000  Level Fort Worth Center
05:51PM 32.5800 -97.8794 262° West 289 333 28,000  Level Fort Worth Center
05:52PM 32.5692 -97.9731 262° West 289 333 28,000  Level Fort Worth Center
05:53PM 32.5581 -98.0667 262° West 289 333 28,000 -60 Level Fort Worth Center
05:54PM 32.5472 -98.1603 262° West 289 333 27,900  Descending Fort Worth Center
05:55PM 32.5383 -98.2514 263° West 289 333 28,000  Climbing Fort Worth Center
05:56PM 32.5272 -98.3422 262° West 289 333 28,000  Level Fort Worth Center
05:57PM 32.5203 -98.4383 265° West 289 333 28,000  Level Fort Worth Center
05:58PM 32.5028 -98.5342 258° West 289 333 28,000  Level Fort Worth Center
05:59PM 32.4914 -98.6153 261° West 289 333 28,000  Level Fort Worth Center
06:00PM 32.4842 -98.7089 265° West 284 327 28,000  Level Fort Worth Center
06:01PM 32.4708 -98.7972 260° West 284 327 28,000  Level Fort Worth Center
06:02PM 32.4614 -98.8883 263° West 284 327 28,000  Level Fort Worth Center
06:03PM 32.4519 -98.9792 263° West 284 327 28,000  Level Fort Worth Center
06:04PM 32.4383 -99.0725 260° West 284 327 28,000  Level Fort Worth Center
06:05PM 32.4286 -99.1633 263° West 284 327 28,000  Level Fort Worth Center
06:06PM 32.4169 -99.2542 261° West 284 327 28,000  Level Fort Worth Center
06:07PM 32.4050 -99.3475 261° West 284 327 28,000  Level Fort Worth Center
06:08PM 32.3931 -99.4408 261° West 294 338 28,000  Level Fort Worth Center
06:09PM 32.3833 -99.5314 263° West 294 338 28,000  Level Fort Worth Center
06:10PM 32.3711 -99.6272 261° West 294 338 28,000  Level Fort Worth Center
06:11PM 32.3592 -99.7178 261° West 294 338 28,000  Level Fort Worth Center
06:12PM 32.3469 -99.8133 261° West 294 338 28,000  Level Fort Worth Center
06:13PM 32.3347 -99.9067 261° West 294 338 28,000  Level Fort Worth Center
06:14PM 32.3244 -99.9997 263° West 294 338 28,000 -180 Level Fort Worth Center
06:15PM 32.3100 -100.0928 260° West 294 338 27,700 -660 Descending Fort Worth Center
06:16PM 32.2994 -100.1906 263° West 300 345 26,700 -1,020 Descending Fort Worth Center
06:17PM 32.2869 -100.2886 261° West 300 345 25,700 -960 Descending Fort Worth Center
06:18PM 32.2739 -100.3961 262° West 300 345 24,800 -1,020 Descending Fort Worth Center
06:19PM 32.2592 -100.4917 260° West 305 351 23,700 -1,200 Descending Fort Worth Center
06:20PM 32.2461 -100.5942 261° West 310 357 22,500 -1,200 Descending Fort Worth Center
06:21PM 32.2350 -100.6947 263° West 315 362 21,300 -1,200 Descending Fort Worth Center
06:22PM 32.2222 -100.7922 261° West 315 362 20,100 -1,200 Descending Fort Worth Center
06:23PM 32.2089 -100.8900 261° West 315 362 18,900 -1,260 Descending Fort Worth Center
06:24PM 32.1936 -100.9900 260° West 315 362 17,600 -1,200 Descending Fort Worth Center
06:25PM 32.1825 -101.0878 262° West 315 362 16,500 -1,200 Descending Fort Worth Center
06:26PM 32.1697 -101.1708 260° West 309 356 15,300 -1,200 Descending Fort Worth Center
06:27PM 32.1583 -101.2661 262° West 303 349 14,200 -720 Descending Fort Worth Center
06:28PM 32.1453 -101.3536 260° West 291 335 13,900 -180 Descending Fort Worth Center
06:29PM 32.1342 -101.4342 261° West 270 311 13,900  Level Fort Worth Center
06:30PM 32.1256 -101.5122 263° West 249 287 13,900 -240 Level Fort Worth Center
06:31PM 32.1125 -101.5903 259° West 244 281 13,500 -1,020 Descending Fort Worth Center
06:32PM 32.1014 -101.6756 261° West 257 296 11,900 -1,620 Descending Fort Worth Center
06:33PM 32.0878 -101.7631 260° West 263 303 10,300 -1,620 Descending Fort Worth Center
06:34PM 32.0767 -101.8436 261° West 263 303 8,700 -1,860 Descending Fort Worth Center
06:35PM 32.0697 -101.9239 264° West 258 297 6,600 -2,040 Descending Fort Worth Center
06:36PM 32.0731 -102.0050 273° West 253 291 4,700 -1,440 Descending Fort Worth Center
06:37PM 32.0744 -102.0811 271° West 253 291 3,800 -720 Descending Fort Worth Center
06:38PM 32.0558 -102.1267 244° Southwest 226 260 3,300 -540 Descending Fort Worth Center
06:44PM 32.0333 -102.1000 84° East  Level FlightAware Approximate
06:51PM 32.0365 -102.1010 84° East  Level Estimated